Date,TemperatureHighF,TemperatureAvgF,TemperatureLowF,DewpointHighF,DewpointAvgF,DewpointLowF,HumidityHigh,HumidityAvg,HumidityLow,PressureMaxIn,PressureMinIn,WindSpeedMaxMPH,WindSpeedAvgMPH,GustSpeedMaxMPH,PrecipitationSumIn
2013-1-1,25,21,16,20,16,12,83,82,80,30.51,30.36,0,0,0,0.00
2013-1-2,29,22,18,21,17,12,81,78,73,30.51,30.38,1,0,2,0.00
2013-1-3,26,19,14,19,14,10,81,78,73,30.38,30.24,5,0,6,0.02
2013-1-4,30,24,18,23,19,13,82,79,73,30.33,30.28,5,0,7,0.00
2013-1-5,36,30,24,28,24,20,83,78,72,30.28,30.15,7,0,8,0.04
2013-1-6,32,29,26,26,23,21,83,80,76,30.15,30.04,0,0,0,0.00
2013-1-7,35,32,30,31,28,26,86,84,83,30.04,29.86,1,0,1,0.00
2013-1-8,39,34,31,34,30,26,86,83,80,30.11,29.88,9,2,14,0.08
2013-1-9,42,38,32,34,31,26,80,74,64,29.88,29.65,13,4,15,0.00
2013-1-10,32,28,26,26,23,20,82,80,76,29.87,29.78,5,0,5,0.00
2013-1-11,32,24,15,20,13,7,82,62,47,30.17,29.87,6,1,6,0.04
2013-1-12,23,18,13,16,12,7,80,76,71,30.24,30.16,0,0,3,0.00
2013-1-13,24,18,14,16,12,8,80,75,67,30.34,30.24,0,0,0,0.00
2013-1-14,25,21,17,18,15,11,79,77,75,30.38,30.25,0,0,0,0.00
2013-1-15,32,27,22,25,21,16,81,78,74,30.52,30.37,5,0,6,0.00
2013-1-16,32,26,19,25,20,14,83,79,74,30.51,30.46,7,0,8,0.02
2013-1-17,27,21,14,21,16,9,82,80,76,30.48,30.30,0,0,0,0.00
2013-1-18,33,23,18,24,17,13,82,77,68,30.31,30.20,0,0,0,0.00
2013-1-19,33,25,18,25,18,13,82,77,70,30.37,30.28,0,0,0,0.00
2013-1-20,31,24,17,23,18,12,82,77,70,30.44,30.33,0,0,0,0.00
2013-1-21,27,19,12,20,13,7,82,79,74,30.34,30.22,0,0,0,0.00
2013-1-22,26,18,12,20,13,7,82,79,75,30.26,30.11,0,0,0,0.00
2013-1-23,36,28,21,32,23,16,85,81,73,30.12,29.90,10,1,12,0.18
2013-1-24,35,28,24,30,23,19,85,81,77,30.22,30.06,8,0,9,0.00
2013-1-25,40,36,31,36,32,26,86,85,82,30.12,29.91,16,4,18,0.34
2013-1-26,36,33,31,32,29,26,87,85,83,29.95,29.87,17,9,20,0.02
2013-1-27,32,29,27,26,25,23,84,83,80,29.98,29.93,12,0,13,0.00
2013-1-28,33,29,27,29,25,22,85,83,81,29.93,29.85,0,0,0,0.00
2013-1-29,36,31,28,30,26,24,85,82,75,30.15,29.85,0,0,7,0.00
2013-1-30,40,35,32,34,30,28,85,83,77,30.21,30.09,15,0,15,0.06
2013-1-31,41,36,33,36,32,29,86,84,80,30.25,30.16,6,0,6,0.02
2013-2-1,42,35,30,34,30,24,85,82,75,30.40,30.18,1,0,12,0.00
2013-2-2,36,29,22,31,24,17,85,83,80,30.43,30.21,0,0,12,0.00
2013-2-3,38,32,24,33,28,20,86,84,81,30.21,30.08,1,0,2,0.00
2013-2-4,43,36,32,35,30,28,85,81,73,30.12,29.98,5,0,9,0.00
2013-2-5,41,37,34,33,31,28,82,77,71,29.97,29.84,8,2,9,0.00
2013-2-6,41,36,33,34,30,28,83,77,70,30.06,29.93,8,2,9,0.00
2013-2-7,39,36,33,33,29,27,82,77,70,30.02,29.90,10,3,11,0.02
2013-2-8,37,33,29,31,28,24,84,81,76,30.10,30.02,29,0,29,0.00
2013-2-9,35,31,27,28,25,22,83,80,75,30.15,30.02,5,0,6,0.00
2013-2-10,34,30,25,28,24,20,84,80,76,30.24,30.16,5,0,7,0.00
2013-2-11,39,33,29,30,27,23,80,76,68,30.19,30.15,3,0,5,0.00
2013-2-12,41,36,31,32,29,26,82,78,71,30.26,30.14,7,0,7,0.00
2013-2-13,46,37,31,35,29,22,83,73,59,30.30,30.13,6,0,10,0.00
2013-2-14,43,34,27,32,26,20,80,72,63,30.48,30.31,2,0,5,0.00
2013-2-15,47,38,29,35,30,23,82,71,61,30.48,30.24,7,1,8,0.00
2013-2-16,45,38,32,35,30,26,80,74,68,30.24,29.91,7,2,8,0.00
2013-2-17,44,34,-22,32,25,-33,81,70,48,30.09,29.95,7,0,7,0.02
2013-2-18,40,35,30,27,24,21,77,66,57,30.09,29.80,10,4,12,0.00
2013-2-19,37,33,30,30,27,24,82,78,65,29.87,29.73,5,0,5,0.04
2013-2-20,41,32,28,32,26,20,83,76,65,29.98,29.87,6,0,6,0.02
2013-2-21,34,31,28,29,25,20,81,77,72,30.00,29.95,7,1,7,0.00
2013-2-22,36,33,30,31,28,25,85,82,76,29.98,29.64,9,1,15,0.16
2013-2-23,42,33,27,29,24,20,76,69,55,30.17,29.69,6,0,7,0.00
2013-2-24,40,31,24,29,24,18,81,72,62,30.28,30.05,9,1,9,0.00
2013-2-25,40,34,30,33,26,21,81,73,66,30.08,29.90,8,2,8,0.14
2013-2-26,43,33,24,30,24,18,80,69,58,30.28,30.08,8,2,8,0.00
2013-2-27,45,37,31,30,26,22,73,64,51,30.25,30.16,8,3,8,0.00
2013-2-28,43,37,34,35,31,27,85,78,72,30.32,30.22,7,1,7,0.08
2013-3-1,49,44,38,42,39,34,87,81,75,30.34,30.27,8,1,10,0.00
2013-3-2,52,46,43,40,38,36,78,72,62,30.28,29.91,7,1,7,0.00
2013-3-3,44,37,29,36,23,19,76,57,45,30.15,29.89,7,2,8,0.00
2013-3-4,42,35,29,22,19,16,66,53,40,30.25,30.06,9,3,9,0.00
2013-3-5,42,35,31,27,21,17,75,57,45,30.06,29.83,9,4,9,0.00
2013-3-6,46,37,32,35,29,24,81,74,63,29.85,29.62,10,5,11,0.00
2013-3-7,44,36,32,35,30,27,84,79,70,30.06,29.85,9,3,9,0.22
2013-3-8,40,33,26,33,28,21,83,80,76,30.11,30.02,7,0,7,0.00
2013-3-9,48,38,29,35,28,24,83,69,49,30.37,30.11,7,0,9,0.00
2013-3-10,46,38,33,33,29,25,79,70,58,30.37,30.22,6,1,6,0.00
2013-3-11,48,38,30,35,28,23,83,68,46,30.29,30.21,6,0,12,0.00
2013-3-12,50,43,34,43,34,24,84,73,54,30.21,30.06,9,2,10,0.08
2013-3-13,56,49,42,44,40,36,81,71,61,30.19,30.10,7,2,10,0.04
2013-3-14,62,52,47,46,39,36,69,61,47,30.14,29.99,9,2,10,0.00
2013-3-15,57,47,38,42,35,30,78,65,49,30.16,30.03,8,0,9,0.06
2013-3-16,52,43,36,39,34,27,78,70,55,30.05,29.71,6,1,9,0.02
2013-3-17,47,35,30,28,23,18,73,62,40,29.99,29.72,8,1,9,0.00
2013-3-18,42,33,26,30,23,18,74,66,54,30.14,29.96,9,1,9,0.04
2013-3-19,46,36,26,27,23,19,81,60,42,30.23,29.86,10,5,13,0.00
2013-3-20,50,41,35,43,34,26,83,76,55,29.86,29.56,17,5,18,0.52
2013-3-21,43,34,29,27,23,20,76,64,46,30.00,29.80,8,1,8,0.00
2013-3-22,46,32,25,29,21,17,77,65,41,30.21,29.99,7,0,8,0.00
2013-3-23,44,32,24,28,21,17,80,65,46,30.29,30.20,9,2,9,0.00
2013-3-24,46,35,26,25,19,14,74,54,31,30.30,30.16,9,4,10,0.00
2013-3-25,52,39,28,28,21,14,60,47,39,30.17,30.01,9,4,10,0.00